Time;durP1;ratioP1;P1;durP2;ratioP2;P2;SDS_P1;SDS_P2;PMS_P1;PMS_P2;Temp;Humidity;BMP_temperature;BMP_pressure;BME280_temperature;BME280_humidity;BME280_pressure;Samples;Min_cycle;Max_cycle;Signal;HPM_P1;HPM_P2
2022/09/18 00:00:37;;;;;;;13.23;7.05;;;15.70;55.80;;;;;;4876673;29;20665;-35
2022/09/18 00:03:08;;;;;;;12.43;6.15;;;15.80;55.90;;;;;;4876767;29;20194;-37
2022/09/18 00:05:39;;;;;;;11.43;5.40;;;15.80;56.00;;;;;;4877089;29;20673;-40
2022/09/18 00:08:10;;;;;;;10.63;5.13;;;15.80;56.00;;;;;;4876975;29;20720;-42
2022/09/18 00:10:45;;;;;;;9.95;4.68;;;15.90;56.00;;;;;;4879103;29;20204;-41
2022/09/18 00:13:17;;;;;;;11.93;5.05;;;15.90;56.10;;;;;;4876462;29;20740;-36
2022/09/18 00:15:57;;;;;;;10.57;5.20;;;15.90;56.10;;;;;;4876509;29;20202;-36
2022/09/18 00:18:28;;;;;;;9.95;4.72;;;16.00;56.10;;;;;;4876630;29;20221;-37
2022/09/18 00:21:04;;;;;;;10.85;4.68;;;16.00;56.60;;;;;;4876445;29;20198;-39
2022/09/18 00:23:35;;;;;;;9.52;4.32;;;16.00;56.10;;;;;;4876403;29;20206;-37
2022/09/18 00:26:06;;;;;;;7.47;4.22;;;16.10;56.20;;;;;;4876105;29;20209;-37
2022/09/18 00:28:37;;;;;;;8.45;4.13;;;16.10;56.20;;;;;;4875830;29;20228;-38
2022/09/18 00:31:12;;;;;;;9.40;4.30;;;16.10;56.10;;;;;;4876474;29;20213;-43
2022/09/18 00:33:43;;;;;;;8.60;4.45;;;16.10;56.20;;;;;;4876415;29;20239;-40
2022/09/18 00:36:19;;;;;;;7.85;4.07;;;16.20;56.20;;;;;;4876463;29;20418;-41
2022/09/18 00:38:50;;;;;;;8.68;4.05;;;16.20;56.10;;;;;;4876471;29;20217;-38
2022/09/18 00:41:23;;;;;;;9.20;4.15;;;16.20;56.10;;;;;;4876509;29;20206;-44
2022/09/18 00:43:55;;;;;;;7.13;3.78;;;16.30;56.20;;;;;;4876165;29;20244;-35
2022/09/18 00:46:33;;;;;;;9.18;4.00;;;16.30;56.20;;;;;;4876476;29;20646;-36
2022/09/18 00:49:13;;;;;;;9.05;4.10;;;16.30;56.20;;;;;;4876495;29;20215;-36
2022/09/18 00:51:46;;;;;;;8.75;4.07;;;16.30;56.10;;;;;;4876147;29;20208;-36
2022/09/18 00:54:22;;;;;;;7.72;3.50;;;16.40;56.10;;;;;;4876974;29;20232;-39
2022/09/18 00:56:55;;;;;;;8.63;3.83;;;16.40;56.20;;;;;;4875835;29;20228;-39
2022/09/18 00:59:28;;;;;;;8.80;3.72;;;16.50;56.20;;;;;;4876224;29;20201;-40
2022/09/18 01:02:02;;;;;;;7.05;3.28;;;16.50;56.20;;;;;;4876016;29;20213;-37
2022/09/18 01:04:33;;;;;;;7.25;3.33;;;16.50;56.20;;;;;;4876518;29;20201;-36
2022/09/18 01:07:10;;;;;;;6.55;3.63;;;16.50;56.10;;;;;;4879779;29;20229;-40
2022/09/18 01:09:48;;;;;;;6.72;3.50;;;16.60;56.30;;;;;;4879665;29;20201;-39
2022/09/18 01:12:27;;;;;;;8.18;3.35;;;16.60;56.30;;;;;;4879437;29;20204;-39
2022/09/18 01:15:07;;;;;;;7.50;3.03;;;16.60;56.30;;;;;;4879323;29;20228;-36
2022/09/18 01:17:46;;;;;;;7.63;3.38;;;16.60;56.20;;;;;;4879409;29;20221;-35
2022/09/18 01:20:45;;;;;;;6.43;3.35;;;16.70;56.20;;;;;;4879428;29;20205;-35
2022/09/18 01:23:39;;;;;;;5.80;3.17;;;16.70;56.20;;;;;;4879575;29;20193;-36
2022/09/18 01:26:25;;;;;;;4.45;2.78;;;16.70;56.10;;;;;;4879696;29;20204;-36
2022/09/18 01:29:02;;;;;;;5.43;2.55;;;16.80;56.10;;;;;;4879359;29;20257;-36
2022/09/18 01:31:36;;;;;;;5.43;2.70;;;16.80;56.10;;;;;;4879241;29;20590;-36
2022/09/18 01:34:12;;;;;;;6.15;2.60;;;16.80;56.10;;;;;;4879260;29;20225;-38
2022/09/18 01:36:47;;;;;;;5.32;2.78;;;16.80;56.20;;;;;;4879477;29;20205;-35
2022/09/18 01:39:21;;;;;;;8.88;3.22;;;16.90;56.50;;;;;;4879647;29;20205;-35
2022/09/18 01:41:53;;;;;;;6.93;2.42;;;16.90;56.20;;;;;;4879310;29;20662;-36
2022/09/18 01:44:29;;;;;;;5.30;2.40;;;16.90;56.10;;;;;;4878847;29;20194;-35
2022/09/18 01:47:02;;;;;;;6.22;2.72;;;17.00;56.20;;;;;;4879509;29;20497;-35
2022/09/18 01:49:39;;;;;;;4.50;2.65;;;17.00;56.20;;;;;;4879390;29;20205;-36
2022/09/18 01:52:13;;;;;;;5.40;2.80;;;17.00;56.10;;;;;;4879628;29;20216;-36
2022/09/18 01:54:46;;;;;;;6.32;2.65;;;17.00;56.00;;;;;;4879309;29;20245;-36
2022/09/18 01:57:23;;;;;;;5.30;2.42;;;17.00;55.90;;;;;;4878109;29;20218;-35
2022/09/18 01:59:59;;;;;;;5.88;2.53;;;17.00;55.90;;;;;;4879012;29;20201;-36
2022/09/18 02:02:33;;;;;;;7.13;2.70;;;17.10;55.90;;;;;;4879212;29;20215;-36
2022/09/18 02:05:09;;;;;;;5.38;2.83;;;17.10;55.80;;;;;;4881507;29;20562;-38
2022/09/18 02:07:47;;;;;;;6.55;2.45;;;17.10;55.80;;;;;;4879108;29;20277;-35
2022/09/18 02:10:18;;;;;;;6.85;2.47;;;17.10;55.80;;;;;;4878495;29;20208;-35
2022/09/18 02:12:53;;;;;;;4.55;2.53;;;17.20;55.80;;;;;;4878837;29;20201;-36
2022/09/18 02:15:27;;;;;;;8.18;2.00;;;17.20;55.80;;;;;;4878693;29;20205;-36
2022/09/18 02:18:03;;;;;;;7.93;3.00;;;17.20;55.80;;;;;;4877604;29;20351;-36
2022/09/18 02:20:35;;;;;;;5.97;2.42;;;17.20;55.80;;;;;;4878979;29;20205;-35
2022/09/18 02:23:08;;;;;;;3.38;1.90;;;17.20;55.80;;;;;;4878927;29;20658;-35
2022/09/18 02:25:43;;;;;;;4.47;2.50;;;17.20;55.70;;;;;;4878596;29;20201;-39
2022/09/18 02:28:16;;;;;;;4.63;2.28;;;17.20;55.70;;;;;;4878407;29;20828;-35
2022/09/18 02:30:49;;;;;;;5.57;2.97;;;17.30;55.70;;;;;;4878037;29;20206;-36
2022/09/18 02:33:31;;;;;;;6.70;3.47;;;17.30;55.70;;;;;;4878091;29;20221;-36
2022/09/18 02:36:27;;;;;;;5.70;3.33;;;17.20;55.60;;;;;;4878644;29;20201;-43
2022/09/18 02:39:12;;;;;;;7.63;3.95;;;17.30;55.60;;;;;;4875858;29;20697;-35
2022/09/18 02:41:50;;;;;;;6.50;3.90;;;17.30;55.50;;;;;;4878535;29;20253;-37
2022/09/18 02:44:26;;;;;;;10.60;5.07;;;17.30;55.50;;;;;;4878164;29;20193;-39
2022/09/18 02:47:06;;;;;;;10.10;4.63;;;17.30;55.50;;;;;;4878442;29;20630;-35
2022/09/18 02:49:45;;;;;;;9.88;4.57;;;17.30;55.50;;;;;;4878046;29;20201;-43
2022/09/18 02:52:21;;;;;;;8.23;4.10;;;17.30;55.50;;;;;;4876640;29;20201;-37
2022/09/18 02:54:57;;;;;;;9.23;5.28;;;17.40;55.50;;;;;;4878713;29;20240;-35
2022/09/18 02:57:35;;;;;;;9.68;4.68;;;17.30;55.50;;;;;;4877872;29;20213;-39
2022/09/18 03:00:10;;;;;;;10.10;4.97;;;17.40;55.50;;;;;;4877873;29;20212;-36
2022/09/18 03:02:43;;;;;;;8.30;4.25;;;17.30;55.40;;;;;;4877389;29;20197;-36
2022/09/18 03:05:14;;;;;;;9.20;4.20;;;17.40;55.50;;;;;;4877883;29;20620;-37
2022/09/18 03:07:45;;;;;;;8.43;4.07;;;17.40;55.50;;;;;;4877930;29;20308;-39
2022/09/18 03:10:15;;;;;;;10.93;4.30;;;17.40;55.40;;;;;;4877438;29;20197;-37
2022/09/18 03:12:46;;;;;;;10.55;5.38;;;17.40;55.40;;;;;;4877286;29;20226;-36
2022/09/18 03:15:17;;;;;;;9.88;5.72;;;17.40;55.40;;;;;;4877683;29;20233;-36
2022/09/18 03:17:49;;;;;;;11.52;5.50;;;17.40;55.40;;;;;;4877245;29;20721;-36
2022/09/18 03:20:20;;;;;;;9.25;5.38;;;17.50;55.40;;;;;;4876958;29;20217;-39
2022/09/18 03:22:51;;;;;;;8.25;5.10;;;17.40;55.30;;;;;;4877336;29;20206;-39
2022/09/18 03:25:21;;;;;;;9.18;4.97;;;17.40;55.30;;;;;;4877487;29;20205;-41
2022/09/18 03:27:55;;;;;;;8.77;4.72;;;17.50;55.30;;;;;;4877213;29;20230;-36
2022/09/18 03:30:26;;;;;;;8.93;4.60;;;17.50;55.30;;;;;;4877250;29;20240;-36
2022/09/18 03:32:59;;;;;;;9.85;5.43;;;17.50;55.30;;;;;;4877393;29;20209;-36
2022/09/18 03:35:31;;;;;;;9.73;5.47;;;17.50;55.40;;;;;;4876993;29;20236;-38
2022/09/18 03:38:01;;;;;;;8.85;4.47;;;17.50;55.30;;;;;;4877052;29;20213;-36
2022/09/18 03:40:33;;;;;;;9.70;5.05;;;17.50;55.30;;;;;;4877457;29;20209;-36
2022/09/18 03:43:05;;;;;;;12.30;5.63;;;17.60;55.30;;;;;;4876993;29;20233;-36
2022/09/18 03:45:35;;;;;;;9.18;4.60;;;17.50;55.30;;;;;;4877732;29;20205;-36
2022/09/18 03:48:08;;;;;;;7.68;4.85;;;17.50;55.30;;;;;;4877348;29;20587;-40
2022/09/18 03:50:38;;;;;;;11.20;5.10;;;17.50;55.30;;;;;;4877328;29;20212;-36
2022/09/18 03:53:09;;;;;;;6.82;4.32;;;17.50;55.30;;;;;;4876698;29;20210;-35
2022/09/18 03:55:40;;;;;;;8.32;5.13;;;17.60;55.30;;;;;;4879446;29;20222;-36
2022/09/18 03:58:11;;;;;;;7.22;4.30;;;17.60;55.30;;;;;;4876569;29;20233;-42
2022/09/18 04:00:41;;;;;;;10.23;5.00;;;17.60;55.30;;;;;;4876886;29;20205;-36
2022/09/18 04:03:14;;;;;;;9.18;4.82;;;17.70;55.30;;;;;;4876708;29;20205;-36
2022/09/18 04:05:44;;;;;;;9.68;4.30;;;17.60;55.30;;;;;;4876585;29;20206;-36
2022/09/18 04:08:15;;;;;;;7.53;3.85;;;17.70;55.30;;;;;;4876157;29;20232;-38
2022/09/18 04:10:48;;;;;;;7.72;4.60;;;17.70;55.30;;;;;;4876177;29;20217;-36
2022/09/18 04:13:19;;;;;;;9.40;4.25;;;17.70;55.30;;;;;;4876067;29;20209;-35
2022/09/18 04:15:49;;;;;;;5.85;3.90;;;17.70;55.20;;;;;;4876164;29;20252;-36
2022/09/18 04:18:22;;;;;;;6.45;3.55;;;17.70;55.20;;;;;;4876420;29;20260;-36
2022/09/18 04:20:53;;;;;;;7.65;3.65;;;17.70;55.30;;;;;;4876218;29;20201;-36
2022/09/18 04:23:23;;;;;;;8.50;4.05;;;17.70;55.20;;;;;;4876570;29;20301;-35
2022/09/18 04:25:54;;;;;;;6.95;3.67;;;17.70;55.20;;;;;;4876376;29;20715;-35
2022/09/18 04:28:25;;;;;;;6.70;3.35;;;17.70;55.20;;;;;;4876138;29;20253;-36
2022/09/18 04:30:55;;;;;;;8.60;3.65;;;17.70;55.20;;;;;;4876223;29;20217;-38
2022/09/18 04:33:28;;;;;;;6.45;3.72;;;17.70;55.20;;;;;;4876372;29;20214;-36
2022/09/18 04:35:59;;;;;;;5.70;3.38;;;17.70;55.20;;;;;;4876298;29;20236;-35
2022/09/18 04:38:29;;;;;;;8.07;3.75;;;17.70;55.20;;;;;;4876656;29;20613;-35
2022/09/18 04:41:01;;;;;;;6.35;3.60;;;17.70;55.20;;;;;;4875642;29;20212;-36
2022/09/18 04:43:32;;;;;;;7.78;3.60;;;17.70;55.20;;;;;;4875772;29;20209;-39
2022/09/18 04:46:02;;;;;;;7.35;3.92;;;17.70;55.10;;;;;;4876251;29;20205;-36
2022/09/18 04:48:35;;;;;;;7.43;3.88;;;17.70;55.10;;;;;;4876464;29;20218;-35
2022/09/18 04:51:05;;;;;;;6.75;3.70;;;17.70;55.10;;;;;;4876308;29;20201;-36
2022/09/18 04:53:36;;;;;;;7.25;3.90;;;17.70;55.10;;;;;;4876502;29;20205;-36
2022/09/18 04:56:07;;;;;;;6.95;3.72;;;17.70;55.10;;;;;;4876619;29;20323;-36
2022/09/18 04:58:38;;;;;;;6.90;4.00;;;17.70;55.10;;;;;;4875845;29;20228;-36
2022/09/18 05:01:09;;;;;;;7.18;3.78;;;17.70;55.10;;;;;;4875680;29;20510;-36
2022/09/18 05:03:41;;;;;;;7.03;3.92;;;17.70;55.20;;;;;;4873592;29;20208;-36
2022/09/18 05:06:12;;;;;;;6.10;3.22;;;17.70;55.20;;;;;;4877284;29;20213;-38
2022/09/18 05:08:42;;;;;;;7.22;3.58;;;17.70;55.20;;;;;;4895492;29;20228;-40
2022/09/18 05:11:13;;;;;;;6.45;3.67;;;17.70;55.20;;;;;;4878551;29;20200;-36
2022/09/18 05:13:44;;;;;;;7.00;3.70;;;17.70;55.20;;;;;;4894624;29;20205;-36
2022/09/18 05:16:15;;;;;;;5.35;2.95;;;17.70;55.20;;;;;;4894660;29;20279;-36
2022/09/18 05:18:48;;;;;;;6.68;3.38;;;17.70;55.20;;;;;;4895415;29;20236;-41
2022/09/18 05:21:18;;;;;;;7.97;3.60;;;17.60;55.10;;;;;;4894967;29;20201;-44
2022/09/18 05:23:49;;;;;;;6.20;3.80;;;17.70;55.10;;;;;;4879896;29;20197;-36
2022/09/18 05:26:20;;;;;;;6.95;4.10;;;17.60;55.10;;;;;;4877891;29;20205;-37
2022/09/18 05:28:52;;;;;;;10.55;5.28;;;17.60;55.10;;;;;;4894741;29;20228;-36
2022/09/18 05:31:22;;;;;;;9.13;5.30;;;17.60;55.30;;;;;;4895168;29;20204;-38
2022/09/18 05:33:55;;;;;;;10.55;5.82;;;17.60;55.40;;;;;;4894506;29;20665;-42
2022/09/18 05:36:26;;;;;;;8.18;5.05;;;17.70;55.60;;;;;;4894607;29;20211;-36
2022/09/18 05:38:57;;;;;;;8.90;5.05;;;17.70;55.60;;;;;;4893944;29;20200;-35
2022/09/18 05:41:27;;;;;;;8.02;5.15;;;17.70;55.60;;;;;;4879947;29;20205;-40
2022/09/18 05:43:58;;;;;;;8.30;4.80;;;17.70;55.60;;;;;;4876380;29;20202;-36
2022/09/18 05:46:28;;;;;;;8.80;5.05;;;17.70;55.60;;;;;;4859165;29;20198;-40
2022/09/18 05:49:01;;;;;;;8.52;4.90;;;17.70;55.60;;;;;;4876553;29;20209;-40
2022/09/18 05:51:32;;;;;;;6.68;4.78;;;17.70;55.60;;;;;;4896346;29;20197;-38
2022/09/18 05:54:10;;;;;;;8.40;4.63;;;17.70;55.50;;;;;;4898345;29;20201;-38
2022/09/18 05:56:40;;;;;;;6.68;4.45;;;17.70;55.50;;;;;;4861441;29;20613;-36
2022/09/18 05:59:11;;;;;;;7.60;5.22;;;17.70;55.50;;;;;;4868637;29;20213;-40
2022/09/18 06:01:42;;;;;;;7.40;4.80;;;17.70;55.50;;;;;;4894064;29;20194;-43
2022/09/18 06:04:14;;;;;;;8.68;5.35;;;17.70;55.50;;;;;;4880185;29;20276;-36
2022/09/18 06:06:45;;;;;;;7.57;4.75;;;17.60;55.40;;;;;;4897541;29;20657;-44
2022/09/18 06:09:16;;;;;;;7.15;4.95;;;17.60;55.50;;;;;;4898560;29;20231;-42
2022/09/18 06:11:46;;;;;;;8.90;5.20;;;17.70;55.60;;;;;;4879900;29;20201;-38
2022/09/18 06:14:17;;;;;;;7.43;4.75;;;17.60;55.50;;;;;;4880301;29;20253;-43
2022/09/18 06:16:48;;;;;;;7.25;4.40;;;17.60;55.50;;;;;;4898381;29;20781;-44
2022/09/18 06:19:20;;;;;;;7.38;4.57;;;17.60;55.50;;;;;;4898143;29;20657;-55
2022/09/18 06:21:51;;;;;;;8.93;4.80;;;17.60;55.40;;;;;;4898651;29;20201;-41
2022/09/18 06:24:22;;;;;;;7.28;4.72;;;17.60;55.40;;;;;;4898100;29;20208;-41
2022/09/18 06:26:52;;;;;;;8.77;4.75;;;17.60;55.40;;;;;;4898193;29;20712;-52
2022/09/18 06:29:23;;;;;;;7.35;4.82;;;17.60;55.40;;;;;;4897912;29;20200;-46
2022/09/18 06:31:54;;;;;;;7.47;4.72;;;17.60;55.40;;;;;;4897909;29;20212;-48
2022/09/18 06:34:27;;;;;;;7.07;4.70;;;17.60;55.40;;;;;;4897148;29;20212;-37
2022/09/18 06:36:57;;;;;;;7.10;4.70;;;17.60;55.40;;;;;;4898251;29;20225;-44
2022/09/18 06:39:28;;;;;;;8.80;5.18;;;17.60;55.40;;;;;;4897831;29;20197;-48
2022/09/18 06:42:01;;;;;;;7.00;4.70;;;17.50;55.30;;;;;;4860688;29;20210;-44
2022/09/18 06:44:31;;;;;;;8.20;4.78;;;17.50;55.50;;;;;;4861980;29;20210;-47
2022/09/18 06:47:02;;;;;;;6.40;4.40;;;17.50;55.50;;;;;;4897912;29;20243;-45
2022/09/18 06:49:35;;;;;;;6.07;4.22;;;17.60;55.60;;;;;;4897679;29;20209;-36
2022/09/18 06:52:05;;;;;;;7.10;4.70;;;17.60;55.60;;;;;;4897568;29;20685;-48
2022/09/18 06:54:36;;;;;;;7.40;4.50;;;17.50;55.50;;;;;;4897792;29;20201;-38
2022/09/18 06:57:08;;;;;;;5.90;4.47;;;17.60;55.50;;;;;;4897594;29;20224;-41
2022/09/18 06:59:39;;;;;;;5.55;4.32;;;17.50;55.40;;;;;;4888422;29;20198;-47
2022/09/18 07:02:15;;;;;;;5.43;4.05;;;17.50;55.40;;;;;;4897118;29;20204;-42
2022/09/18 07:04:48;;;;;;;6.07;4.35;;;17.50;55.50;;;;;;4891179;29;20197;-38
2022/09/18 07:07:19;;;;;;;6.68;4.30;;;17.50;55.50;;;;;;4877837;29;20222;-45
2022/09/18 07:09:49;;;;;;;6.47;3.95;;;17.40;55.40;;;;;;4877511;29;20668;-36
2022/09/18 07:12:20;;;;;;;6.50;4.55;;;17.40;55.40;;;;;;4876551;29;20202;-42
2022/09/18 07:14:50;;;;;;;5.75;4.35;;;17.50;55.50;;;;;;4876493;29;20225;-44
2022/09/18 07:17:21;;;;;;;6.68;4.68;;;17.40;55.40;;;;;;4876042;29;20217;-53
2022/09/18 07:19:54;;;;;;;6.55;4.50;;;17.40;55.40;;;;;;4875469;29;20202;-42
2022/09/18 07:22:24;;;;;;;6.97;4.35;;;17.40;55.40;;;;;;4876306;29;20206;-45
2022/09/18 07:24:55;;;;;;;4.82;3.75;;;17.40;56.00;;;;;;4877337;29;20298;-41
2022/09/18 07:27:26;;;;;;;4.93;4.03;;;17.40;55.40;;;;;;4876441;29;20233;-43
2022/09/18 07:29:57;;;;;;;6.93;4.50;;;17.30;55.30;;;;;;4877208;29;20209;-44
2022/09/18 07:32:27;;;;;;;6.47;4.07;;;17.40;55.40;;;;;;4876814;29;20841;-39
2022/09/18 07:35:00;;;;;;;5.85;4.45;;;17.30;55.30;;;;;;4877197;29;20237;-45
2022/09/18 07:37:32;;;;;;;4.68;3.58;;;17.30;55.30;;;;;;4876953;29;20222;-42
2022/09/18 07:40:03;;;;;;;5.03;3.75;;;17.30;55.30;;;;;;4877405;29;20212;-41
2022/09/18 07:42:33;;;;;;;4.82;4.03;;;17.30;55.30;;;;;;4876870;29;20280;-41
2022/09/18 07:45:05;;;;;;;6.78;4.25;;;17.30;55.30;;;;;;4876874;29;20596;-40
2022/09/18 07:47:35;;;;;;;5.25;4.07;;;17.20;55.30;;;;;;4877321;29;20292;-44
2022/09/18 07:50:14;;;;;;;4.90;3.97;;;17.20;55.30;;;;;;4876731;29;20205;-41
2022/09/18 07:52:52;;;;;;;5.47;3.92;;;17.20;55.30;;;;;;4877036;29;20563;-40
2022/09/18 07:55:23;;;;;;;5.03;3.95;;;17.20;55.30;;;;;;4877205;29;20232;-42
2022/09/18 07:57:58;;;;;;;6.30;4.22;;;17.20;55.30;;;;;;4876768;29;20225;-45
2022/09/18 08:00:31;;;;;;;4.30;3.50;;;17.20;55.30;;;;;;4877125;29;20240;-41
2022/09/18 08:03:05;;;;;;;4.95;3.88;;;17.20;55.20;;;;;;4876585;29;20224;-42
2022/09/18 08:05:38;;;;;;;6.07;4.20;;;17.20;55.30;;;;;;4878634;29;20638;-46
2022/09/18 08:08:11;;;;;;;5.70;4.45;;;17.10;55.20;;;;;;4877034;29;20259;-37
2022/09/18 08:10:43;;;;;;;5.55;4.35;;;17.10;55.20;;;;;;4877176;29;20705;-43
2022/09/18 08:13:14;;;;;;;4.55;3.97;;;17.10;55.20;;;;;;4877134;29;20206;-43
2022/09/18 08:15:45;;;;;;;5.68;3.97;;;17.10;55.30;;;;;;4875902;29;20241;-36
2022/09/18 08:18:16;;;;;;;5.53;3.80;;;17.00;55.30;;;;;;4876504;29;20627;-43
2022/09/18 08:20:48;;;;;;;6.93;4.55;;;17.00;55.30;;;;;;4876239;29;20354;-41
2022/09/18 08:23:19;;;;;;;6.50;3.92;;;17.00;55.30;;;;;;4876331;29;20198;-36
2022/09/18 08:25:50;;;;;;;5.82;3.97;;;17.00;55.30;;;;;;4876491;29;20205;-42
2022/09/18 08:28:20;;;;;;;6.55;4.25;;;17.00;55.20;;;;;;4876714;29;20222;-41
2022/09/18 08:30:51;;;;;;;5.75;4.18;;;17.00;55.20;;;;;;4876362;29;20201;-35
2022/09/18 08:33:22;;;;;;;5.55;4.13;;;17.00;55.30;;;;;;4875871;29;20222;-40
2022/09/18 08:35:55;;;;;;;5.95;4.40;;;17.00;55.20;;;;;;4876010;29;20683;-36
2022/09/18 08:38:26;;;;;;;5.55;4.38;;;16.90;55.20;;;;;;4876784;29;20229;-41
2022/09/18 08:41:11;;;;;;;5.55;4.07;;;16.90;55.20;;;;;;4876083;29;20722;-36
2022/09/18 08:43:50;;;;;;;4.82;4.07;;;16.90;55.20;;;;;;4876165;29;20654;-46
2022/09/18 08:46:26;;;;;;;5.45;4.25;;;16.90;55.20;;;;;;4876382;29;20201;-36
2022/09/18 08:49:03;;;;;;;5.30;4.43;;;16.90;55.30;;;;;;4876336;29;20209;-36
2022/09/18 08:51:44;;;;;;;5.35;4.00;;;16.80;55.20;;;;;;4875645;29;20201;-42
2022/09/18 08:54:26;;;;;;;5.95;4.20;;;16.80;55.20;;;;;;4876336;29;20202;-40
2022/09/18 08:56:58;;;;;;;5.25;3.60;;;16.80;56.10;;;;;;4873383;29;20760;-36
2022/09/18 08:59:37;;;;;;;5.15;4.10;;;16.80;56.40;;;;;;4875493;29;20871;-36
2022/09/18 09:02:21;;;;;;;5.88;4.15;;;16.90;56.50;;;;;;4879935;29;20282;-38
2022/09/18 09:04:53;;;;;;;4.50;3.90;;;16.90;56.40;;;;;;4870151;29;20225;-37
2022/09/18 09:07:49;;;;;;;5.30;4.03;;;16.90;56.30;;;;;;4865869;29;20231;-36
2022/09/18 09:10:37;;;;;;;6.45;4.38;;;16.90;56.30;;;;;;4888810;29;20202;-39
2022/09/18 09:13:39;;;;;;;5.20;4.25;;;16.90;56.30;;;;;;4886887;29;20201;-36
2022/09/18 09:16:16;;;;;;;5.40;4.30;;;16.80;56.10;;;;;;4883280;29;20229;-46
2022/09/18 09:18:59;;;;;;;5.40;3.80;;;16.80;56.10;;;;;;4890687;29;20312;-44
2022/09/18 09:21:53;;;;;;;5.53;4.00;;;16.80;56.10;;;;;;4895014;29;20197;-36
2022/09/18 09:24:35;;;;;;;5.80;4.07;;;16.80;56.10;;;;;;4895328;29;20308;-46
2022/09/18 09:27:16;;;;;;;5.57;4.28;;;16.80;56.10;;;;;;4897433;29;20216;-35
2022/09/18 09:29:49;;;;;;;4.68;3.70;;;16.80;56.00;;;;;;4866468;29;20229;-40
2022/09/18 09:32:27;;;;;;;5.22;4.50;;;16.70;55.90;;;;;;4867217;29;20564;-47
2022/09/18 09:35:05;;;;;;;5.40;4.03;;;16.80;55.90;;;;;;4899004;29;20648;-50
2022/09/18 09:37:44;;;;;;;6.40;4.45;;;16.70;55.90;;;;;;4898126;29;20228;-41
2022/09/18 09:40:20;;;;;;;4.32;3.80;;;16.70;55.90;;;;;;4892650;29;20690;-42
2022/09/18 09:42:55;;;;;;;5.43;4.10;;;16.70;55.90;;;;;;4886324;29;20194;-47
2022/09/18 09:45:30;;;;;;;6.28;4.55;;;16.70;55.90;;;;;;4896799;29;20197;-45
2022/09/18 09:48:07;;;;;;;5.82;4.10;;;16.70;55.90;;;;;;4885005;29;20216;-47
2022/09/18 09:50:48;;;;;;;4.57;3.83;;;16.60;55.90;;;;;;4897914;29;20196;-53
2022/09/18 09:53:19;;;;;;;5.55;4.07;;;16.60;55.90;;;;;;4895311;29;20558;-46
2022/09/18 09:56:01;;;;;;;4.35;3.78;;;16.60;55.80;;;;;;4898892;29;20232;-42
2022/09/18 09:58:46;;;;;;;4.90;4.38;;;16.60;55.90;;;;;;4898720;29;20221;-36
2022/09/18 10:01:23;;;;;;;5.85;4.05;;;16.60;55.80;;;;;;4897936;29;20204;-41
2022/09/18 10:04:05;;;;;;;5.22;3.95;;;16.60;55.80;;;;;;4898229;29;20192;-46
2022/09/18 10:06:45;;;;;;;5.00;4.15;;;16.60;55.80;;;;;;4894254;29;20209;-51
2022/09/18 10:09:23;;;;;;;5.18;4.07;;;16.50;55.70;;;;;;4895495;29;20781;-49
2022/09/18 10:12:00;;;;;;;4.80;4.00;;;16.50;56.30;;;;;;4880057;29;20213;-44
2022/09/18 10:14:36;;;;;;;4.22;3.55;;;16.50;55.70;;;;;;4861294;29;20210;-47
2022/09/18 10:17:07;;;;;;;5.63;4.15;;;16.50;55.70;;;;;;4860863;29;20260;-46
2022/09/18 10:19:41;;;;;;;6.22;4.22;;;16.50;55.70;;;;;;4879378;29;20586;-42
2022/09/18 10:22:17;;;;;;;5.45;4.00;;;16.50;55.70;;;;;;4879725;29;20197;-52
2022/09/18 10:24:52;;;;;;;7.05;4.68;;;16.40;55.70;;;;;;4862902;29;20202;-47
2022/09/18 10:27:25;;;;;;;5.78;4.20;;;16.40;55.80;;;;;;4871416;29;20234;-35
2022/09/18 10:29:56;;;;;;;6.10;4.68;;;16.40;55.80;;;;;;4897826;29;20196;-44
2022/09/18 10:32:37;;;;;;;6.22;4.85;;;16.40;55.80;;;;;;4895935;29;20217;-51
2022/09/18 10:35:45;;;;;;;6.88;4.80;;;16.40;55.80;;;;;;4897980;29;20669;-43
2022/09/18 10:38:42;;;;;;;6.00;4.55;;;16.40;55.70;;;;;;4897378;29;20720;-35
2022/09/18 10:41:35;;;;;;;7.20;5.30;;;16.40;55.60;;;;;;4871893;29;20209;-38
2022/09/18 10:44:29;;;;;;;8.40;4.82;;;16.40;55.60;;;;;;4892221;29;20208;-35
2022/09/18 10:47:06;;;;;;;7.60;4.85;;;16.30;55.60;;;;;;4883031;29;20694;-38
2022/09/18 10:49:41;;;;;;;7.93;5.13;;;16.30;55.70;;;;;;4880343;29;20885;-42
2022/09/18 10:52:32;;;;;;;7.28;5.07;;;16.30;55.70;;;;;;4878534;29;20229;-43
2022/09/18 10:55:14;;;;;;;6.43;4.70;;;16.30;55.70;;;;;;4864644;29;20206;-44
2022/09/18 10:57:46;;;;;;;7.65;4.95;;;16.30;55.80;;;;;;4862911;29;20298;-39
2022/09/18 11:00:38;;;;;;;7.38;5.30;;;16.30;55.80;;;;;;4898105;29;20211;-39
2022/09/18 11:03:32;;;;;;;8.43;5.43;;;16.20;55.80;;;;;;4897056;29;20728;-37
2022/09/18 11:06:05;;;;;;;10.50;5.75;;;16.20;55.80;;;;;;4897416;29;20208;-39
2022/09/18 11:08:42;;;;;;;8.65;4.90;;;16.20;55.70;;;;;;4879157;29;20221;-43
2022/09/18 11:11:21;;;;;;;11.88;5.00;;;16.20;55.70;;;;;;4883472;29;20214;-46
2022/09/18 11:13:57;;;;;;;9.27;5.63;;;16.20;55.70;;;;;;4887759;29;20197;-35
2022/09/18 11:16:31;;;;;;;9.55;5.68;;;16.20;55.70;;;;;;4897194;29;20228;-38
2022/09/18 11:19:08;;;;;;;7.65;4.63;;;16.20;55.70;;;;;;4896096;29;20197;-36
2022/09/18 11:21:46;;;;;;;9.07;5.03;;;16.20;55.70;;;;;;4897570;29;20200;-44
2022/09/18 11:24:26;;;;;;;9.40;5.53;;;16.20;55.70;;;;;;4897229;29;20611;-39
2022/09/18 11:26:57;;;;;;;8.93;5.60;;;16.20;55.80;;;;;;4897082;29;20309;-44
2022/09/18 11:29:31;;;;;;;9.75;5.22;;;16.10;55.80;;;;;;4897352;29;20212;-37
2022/09/18 11:32:16;;;;;;;10.98;5.50;;;16.10;55.80;;;;;;4896863;29;20213;-37
2022/09/18 11:34:51;;;;;;;8.80;5.32;;;16.10;55.80;;;;;;4878074;29;20193;-35
2022/09/18 11:37:30;;;;;;;7.38;4.78;;;16.10;55.80;;;;;;4877683;29;20239;-35
2022/09/18 11:40:06;;;;;;;8.30;5.35;;;16.10;55.80;;;;;;4877531;29;20209;-38
2022/09/18 11:42:42;;;;;;;10.25;5.32;;;16.10;55.80;;;;;;4877896;29;20822;-39
2022/09/18 11:45:38;;;;;;;9.70;5.70;;;16.10;55.70;;;;;;4859284;29;20209;-35
2022/09/18 11:48:22;;;;;;;9.32;5.22;;;16.10;55.70;;;;;;4858974;29;20241;-35
2022/09/18 11:50:56;;;;;;;9.40;5.70;;;16.10;55.70;;;;;;4861467;29;20213;-38
2022/09/18 11:53:28;;;;;;;8.13;5.05;;;16.10;55.70;;;;;;4858898;29;20228;-36
2022/09/18 11:56:04;;;;;;;8.88;4.95;;;16.10;56.00;;;;;;4858869;29;20210;-42
2022/09/18 11:58:39;;;;;;;8.82;5.03;;;16.10;55.80;;;;;;4863863;29;20220;-38
2022/09/18 12:01:19;;;;;;;9.70;5.13;;;16.10;55.80;;;;;;4867495;29;20681;-40
2022/09/18 12:03:56;;;;;;;8.90;5.68;;;16.10;55.80;;;;;;4865852;29;20210;-35
2022/09/18 12:06:34;;;;;;;9.38;5.03;;;16.00;55.80;;;;;;4871275;29;20201;-35
2022/09/18 12:09:11;;;;;;;11.00;5.20;;;16.00;55.80;;;;;;4871110;29;20217;-40
2022/09/18 12:11:46;;;;;;;8.57;5.22;;;16.00;55.80;;;;;;4866095;29;20197;-47
2022/09/18 12:14:23;;;;;;;8.27;5.15;;;16.00;55.80;;;;;;4866737;29;20665;-38
2022/09/18 12:16:58;;;;;;;8.82;5.03;;;16.00;55.70;;;;;;4873007;29;20234;-42
2022/09/18 12:19:35;;;;;;;7.68;4.45;;;16.10;55.70;;;;;;4868216;29;20254;-35
2022/09/18 12:22:13;;;;;;;9.13;5.15;;;16.10;55.80;;;;;;4865418;29;20202;-35
2022/09/18 12:24:43;;;;;;;8.02;5.13;;;16.00;55.70;;;;;;4865307;29;20197;-41
2022/09/18 12:27:30;;;;;;;10.43;4.82;;;16.00;55.70;;;;;;4863790;29;20583;-35
2022/09/18 12:30:11;;;;;;;7.32;4.55;;;16.00;55.70;;;;;;4873052;29;20253;-38
2022/09/18 12:33:10;;;;;;;9.05;5.15;;;16.00;55.70;;;;;;4876188;29;20213;-43
2022/09/18 12:36:07;;;;;;;9.07;5.35;;;16.00;55.80;;;;;;4871845;29;20205;-47
2022/09/18 12:38:54;;;;;;;9.57;5.07;;;16.00;55.80;;;;;;4876267;29;20221;-42
2022/09/18 12:41:43;;;;;;;7.55;4.80;;;15.90;55.70;;;;;;4876249;29;20209;-45
2022/09/18 12:44:40;;;;;;;7.47;4.70;;;15.90;55.70;;;;;;4876124;29;20197;-42
2022/09/18 12:47:29;;;;;;;8.68;5.30;;;16.00;55.70;;;;;;4876107;29;20236;-49
2022/09/18 12:50:28;;;;;;;10.23;5.13;;;16.00;55.60;;;;;;4876217;29;20205;-35
2022/09/18 12:53:16;;;;;;;8.70;5.05;;;16.00;55.60;;;;;;4875859;29;20202;-38
2022/09/18 12:56:00;;;;;;;10.13;4.57;;;15.90;55.60;;;;;;4876348;29;20197;-41
2022/09/18 12:58:58;;;;;;;7.90;5.00;;;15.90;55.60;;;;;;4875680;29;21475;-44
2022/09/18 13:01:34;;;;;;;7.32;4.72;;;15.90;55.60;;;;;;4875898;29;20236;-44
2022/09/18 13:04:11;;;;;;;6.90;4.30;;;15.90;55.60;;;;;;4876063;29;20201;-38
2022/09/18 13:06:46;;;;;;;6.38;4.47;;;15.90;55.70;;;;;;4876178;29;20205;-41
2022/09/18 13:09:23;;;;;;;7.43;4.28;;;15.90;55.70;;;;;;4876364;29;20634;-40
2022/09/18 13:11:58;;;;;;;9.65;4.97;;;15.90;55.70;;;;;;4875622;29;20205;-46
2022/09/18 13:14:31;;;;;;;6.82;4.07;;;15.90;55.70;;;;;;4875431;29;20212;-45
2022/09/18 13:17:08;;;;;;;8.75;5.35;;;15.90;55.70;;;;;;4875685;29;20241;-42
2022/09/18 13:19:42;;;;;;;7.05;4.55;;;15.90;55.70;;;;;;4875573;29;20259;-35
2022/09/18 13:22:17;;;;;;;6.50;4.15;;;15.90;55.60;;;;;;4875716;29;20213;-39
2022/09/18 13:24:54;;;;;;;7.00;4.55;;;15.90;55.60;;;;;;4876063;29;20204;-51
2022/09/18 13:27:27;;;;;;;7.03;4.63;;;15.90;55.60;;;;;;4876016;29;20225;-47